Airfield :
LOGIN :

Register | Disclaimer

   EN    FR    IT 

 










Legend :    VFR   Marginal VFR   IFR   Intensive IFR   Very Intensive IFR
Visi :
Ceiling :
>= 8 km
>= 3000ft
5 to 8 km
1000 to 3000 ft
1500m to 5 km
500 to 1000 ft
800 to 1500m
200 to 500 ft
< 800m
< 200 ft
Symbols :   Thunderstorms  Fog  Heavy snow  Heavy precipitations  Wind > 20 kt
SIGMETs :     Misc.  Thunderstorms  Icing  Turbulence  Mountain Waves  Volcanic Ashes






- Airport Elevation : 699 ft
- IATA code : PAD


EDLP - Paderborn Lippstadt

CURRENT METAR :
  • 131420Z 21009KT 9999 BKN017 BKN020 06/03 Q1001

EXPIRED METARs :
  • 131350Z 21010KT 9999 BKN017 06/03 Q1001
  • 131320Z 21012KT 9999 FEW016 BKN020 06/03 Q1000
  • 131250Z 21011KT 9999 FEW017 BKN020 06/03 Q1000
  • 131220Z 20013KT 9999 BKN020 06/03 Q1000
  • 131150Z 20013KT 9999 SCT019 BKN024 05/02 Q1000

TAF TAF EDLP
Valid from the 13 at 12:00 until the 14 at 12:00 UTC


131100Z 1312/1412 21012KT 9999 BKN015
BECMG 1317/1319 18007KT
BECMG 1404/1407 12010KT



MET'MAP, your aeronautical weather chart ! - Copyright ORBIFLY December 2007 - Disclaimer

ORBIFLY MET'MAP TEAM :

Programming & Development : Alexandra Zaïnal
Concept & Development : Baudouin d'Aumeries
Co-Development & Prog : Marc-Olivier Méhu
Technical & hardware support : Manuel Goepfert

Contact : metmap@orbifly.com




SOURCES & CREDITS :

   NOAA